Time;durP1;ratioP1;P1;durP2;ratioP2;P2;SDS_P1;SDS_P2;PMS_P1;PMS_P2;Temp;Humidity;BMP_temperature;BMP_pressure;BME280_temperature;BME280_humidity;BME280_pressure;Samples;Min_cycle;Max_cycle;Signal;HPM_P1;HPM_P2
2022/01/04 00:01:48;;;;;;;8.73;5.57;;;9.00;85.60;;;;;;5033406;28;20047;-90
2022/01/04 00:04:15;;;;;;;8.75;5.68;;;9.00;85.60;;;;;;5032904;28;20049;-90
2022/01/04 00:06:45;;;;;;;8.65;6.05;;;9.00;85.60;;;;;;5033078;28;20053;-89
2022/01/04 00:09:13;;;;;;;7.70;5.50;;;9.00;85.70;;;;;;5032549;28;20055;-89
2022/01/04 00:14:14;;;;;;;8.32;5.15;;;8.90;85.60;;;;;;5033223;28;20053;-89
2022/01/04 00:16:41;;;;;;;6.97;4.72;;;8.90;85.60;;;;;;5033038;28;20041;-89
2022/01/04 00:19:09;;;;;;;5.88;4.05;;;8.90;85.70;;;;;;5032844;28;20473;-89
2022/01/04 00:21:37;;;;;;;6.50;4.13;;;8.90;85.70;;;;;;5032358;28;20502;-89
2022/01/04 00:24:04;;;;;;;7.90;4.47;;;8.90;85.60;;;;;;5032530;28;20057;-89
2022/01/04 00:26:31;;;;;;;5.90;3.88;;;8.90;85.70;;;;;;5033028;28;20045;-89
2022/01/04 00:28:58;;;;;;;6.53;3.40;;;8.90;85.70;;;;;;5032986;28;20041;-89
2022/01/04 00:31:26;;;;;;;5.82;3.47;;;8.90;85.70;;;;;;5034641;28;20044;-90
2022/01/04 00:33:53;;;;;;;8.70;3.47;;;8.90;85.70;;;;;;5032611;28;20522;-90
2022/01/04 00:36:20;;;;;;;7.68;2.90;;;8.90;85.70;;;;;;5032182;28;20052;-90
2022/01/04 00:38:47;;;;;;;5.55;3.60;;;8.90;85.70;;;;;;5032969;28;20046;-89
2022/01/04 00:41:14;;;;;;;4.95;3.13;;;8.90;85.70;;;;;;5032979;28;20045;-91
2022/01/04 00:43:44;;;;;;;6.32;2.92;;;8.90;85.70;;;;;;5032851;28;20045;-91
2022/01/04 00:46:16;;;;;;;5.15;3.10;;;8.90;85.70;;;;;;5032916;28;20053;-89
2022/01/04 00:51:31;;;;;;;4.15;2.25;;;8.90;85.70;;;;;;5028870;28;20049;-90
2022/01/04 00:53:58;;;;;;;6.65;2.70;;;8.80;85.70;;;;;;5032738;28;20049;-90
2022/01/04 00:56:25;;;;;;;5.82;2.60;;;8.90;85.70;;;;;;5032791;28;20045;-89
2022/01/04 00:58:53;;;;;;;5.03;2.88;;;8.90;85.80;;;;;;5033815;28;20038;-89
2022/01/04 01:01:21;;;;;;;8.27;3.00;;;8.80;85.70;;;;;;5032328;28;20045;-87
2022/01/04 01:03:48;;;;;;;7.50;2.60;;;8.80;85.70;;;;;;5032778;28;20068;-90
2022/01/04 01:06:17;;;;;;;6.03;2.38;;;8.80;85.70;;;;;;5031688;28;20079;-89
2022/01/04 01:08:44;;;;;;;7.75;2.72;;;8.90;85.80;;;;;;5036309;28;20049;-89
2022/01/04 01:11:11;;;;;;;6.38;2.70;;;8.80;85.70;;;;;;5036275;28;20049;-90
2022/01/04 01:13:39;;;;;;;5.80;2.65;;;8.80;85.70;;;;;;5036340;28;20424;-89
2022/01/04 01:16:09;;;;;;;5.40;2.63;;;8.80;85.80;;;;;;5036222;28;20041;-89
2022/01/04 01:18:37;;;;;;;6.05;2.50;;;8.80;85.80;;;;;;5035447;28;20049;-90
2022/01/04 01:21:05;;;;;;;6.75;2.30;;;8.80;85.80;;;;;;5037635;28;20052;-89
2022/01/04 01:23:33;;;;;;;5.20;2.40;;;8.80;85.80;;;;;;5035983;28;20073;-89
2022/01/04 01:26:01;;;;;;;5.30;2.35;;;8.80;85.80;;;;;;5036241;28;20514;-90
2022/01/04 01:28:28;;;;;;;5.22;2.35;;;8.80;85.70;;;;;;5036244;28;20048;-89
2022/01/04 01:30:55;;;;;;;4.63;2.00;;;8.80;85.70;;;;;;5020026;28;20045;-90
2022/01/04 01:33:24;;;;;;;9.70;2.60;;;8.80;85.70;;;;;;5035356;28;20049;-90
2022/01/04 01:35:51;;;;;;;7.78;2.35;;;8.80;85.70;;;;;;5035961;28;20052;-89
2022/01/04 01:38:19;;;;;;;5.35;2.47;;;8.70;85.70;;;;;;5036109;28;20051;-90
2022/01/04 01:40:47;;;;;;;7.93;2.30;;;8.70;85.70;;;;;;5035826;28;20045;-91
2022/01/04 01:43:15;;;;;;;5.53;2.30;;;8.70;85.70;;;;;;5036011;28;20038;-91
2022/01/04 01:45:43;;;;;;;5.78;2.38;;;8.70;85.70;;;;;;5035474;28;20053;-90
2022/01/04 01:48:10;;;;;;;5.60;2.47;;;8.70;85.70;;;;;;5035005;28;20422;-90
2022/01/04 01:50:38;;;;;;;6.07;2.40;;;8.70;85.70;;;;;;5035699;28;20068;-89
2022/01/04 01:53:05;;;;;;;5.30;2.28;;;8.70;85.70;;;;;;5035687;28;20048;-90
2022/01/04 01:55:33;;;;;;;4.47;2.50;;;8.70;85.70;;;;;;5035624;28;20042;-89
2022/01/04 01:58:00;;;;;;;8.95;2.20;;;8.70;85.70;;;;;;5035634;28;20045;-89
2022/01/04 02:00:29;;;;;;;4.20;2.20;;;8.60;85.70;;;;;;5034246;28;20056;-89
2022/01/04 02:02:57;;;;;;;7.28;2.13;;;8.70;85.80;;;;;;5034223;28;20453;-89
2022/01/04 02:05:25;;;;;;;5.40;2.50;;;8.60;85.80;;;;;;5035219;28;20042;-89
2022/01/04 02:07:52;;;;;;;4.00;2.33;;;8.60;85.80;;;;;;5035369;28;20418;-90
2022/01/04 02:10:21;;;;;;;4.63;2.30;;;8.60;85.80;;;;;;5035398;28;20049;-89
2022/01/04 02:12:49;;;;;;;4.50;2.10;;;8.60;85.80;;;;;;5035387;28;20556;-90
2022/01/04 02:15:18;;;;;;;4.47;2.13;;;8.60;85.80;;;;;;5034203;28;20442;-90
2022/01/04 02:17:47;;;;;;;4.22;2.03;;;8.60;85.80;;;;;;5034674;28;20037;-90
2022/01/04 02:20:15;;;;;;;3.97;2.05;;;8.60;85.80;;;;;;5034891;28;20532;-90
2022/01/04 02:22:43;;;;;;;3.88;1.80;;;8.60;85.80;;;;;;5035048;28;20037;-89
2022/01/04 02:25:11;;;;;;;6.88;1.80;;;8.60;85.80;;;;;;5034940;28;20407;-89
2022/01/04 02:27:40;;;;;;;5.55;2.10;;;8.60;85.80;;;;;;5034779;28;20045;-88
2022/01/04 02:30:11;;;;;;;5.78;1.92;;;8.60;85.80;;;;;;5031854;28;20046;-90
2022/01/04 02:32:38;;;;;;;3.97;1.70;;;8.60;85.80;;;;;;5034864;28;20049;-89
2022/01/04 02:35:06;;;;;;;3.90;1.70;;;8.60;85.80;;;;;;5034719;28;20041;-90
2022/01/04 02:37:33;;;;;;;3.85;1.58;;;8.60;85.80;;;;;;5034828;28;20056;-90
2022/01/04 02:40:01;;;;;;;5.13;1.45;;;8.50;85.80;;;;;;5034854;28;20041;-90
2022/01/04 02:42:28;;;;;;;4.57;1.83;;;8.60;85.80;;;;;;5033823;28;20056;-89
2022/01/04 02:44:55;;;;;;;8.05;1.80;;;8.60;85.80;;;;;;5033983;28;20046;-89
2022/01/04 02:47:22;;;;;;;5.43;1.40;;;8.50;85.80;;;;;;5034473;28;20514;-89
2022/01/04 02:49:49;;;;;;;3.85;1.50;;;8.60;85.80;;;;;;5034533;28;20057;-90
2022/01/04 02:52:16;;;;;;;3.83;1.55;;;8.60;85.90;;;;;;5034625;28;20049;-90
2022/01/04 02:54:43;;;;;;;3.00;1.30;;;8.50;85.80;;;;;;5034648;28;20064;-90
2022/01/04 02:57:10;;;;;;;2.45;1.15;;;8.50;85.90;;;;;;5033668;28;20057;-90
2022/01/04 02:59:37;;;;;;;7.60;1.67;;;8.50;85.90;;;;;;5033983;28;20063;-90
2022/01/04 03:02:05;;;;;;;2.95;1.17;;;8.50;85.90;;;;;;5034332;28;20052;-89
2022/01/04 03:04:32;;;;;;;3.85;1.30;;;8.50;85.80;;;;;;5034335;28;20076;-90
2022/01/04 03:07:00;;;;;;;3.55;1.33;;;8.50;85.90;;;;;;5034218;28;20051;-89
2022/01/04 03:09:28;;;;;;;3.38;1.25;;;8.50;85.90;;;;;;5033325;28;20049;-89
2022/01/04 03:11:56;;;;;;;2.85;1.27;;;8.50;85.90;;;;;;5033444;28;20056;-89
2022/01/04 03:14:23;;;;;;;3.22;1.33;;;8.50;85.90;;;;;;5034088;28;20128;-90
2022/01/04 03:16:50;;;;;;;3.88;1.25;;;8.50;85.90;;;;;;5034162;28;20049;-90
2022/01/04 03:19:18;;;;;;;2.80;1.17;;;8.50;85.90;;;;;;5034144;28;20086;-90
2022/01/04 03:21:45;;;;;;;3.47;1.40;;;8.50;85.90;;;;;;5033993;28;20053;-89
2022/01/04 03:24:14;;;;;;;3.35;1.40;;;8.50;85.90;;;;;;5033067;28;20050;-89
2022/01/04 03:26:42;;;;;;;3.15;1.30;;;8.50;85.90;;;;;;5033570;28;20046;-89
2022/01/04 03:29:10;;;;;;;2.75;1.20;;;8.50;85.90;;;;;;5033214;28;20041;-89
2022/01/04 03:31:38;;;;;;;5.15;1.10;;;8.50;85.90;;;;;;5033514;28;20051;-90
2022/01/04 03:34:06;;;;;;;3.05;1.17;;;8.50;85.90;;;;;;5033859;28;20045;-89
2022/01/04 03:36:34;;;;;;;3.80;1.30;;;8.50;85.90;;;;;;5032630;28;20061;-90
2022/01/04 03:39:04;;;;;;;3.95;1.42;;;8.50;85.90;;;;;;5033564;28;20422;-90
2022/01/04 03:41:36;;;;;;;7.05;1.40;;;8.50;85.90;;;;;;5033293;28;20045;-90
2022/01/04 03:44:08;;;;;;;2.67;1.05;;;8.50;85.90;;;;;;5033579;28;20041;-90
2022/01/04 03:46:35;;;;;;;2.63;1.10;;;8.50;85.90;;;;;;5033572;28;20053;-89
2022/01/04 03:49:03;;;;;;;3.17;1.30;;;8.50;85.90;;;;;;5033409;28;20522;-89
2022/01/04 03:51:30;;;;;;;2.97;1.20;;;8.50;85.90;;;;;;5032766;28;20049;-89
2022/01/04 03:54:02;;;;;;;2.50;1.27;;;8.50;85.90;;;;;;5033924;28;20060;-90
2022/01/04 03:56:29;;;;;;;2.22;1.10;;;8.50;85.90;;;;;;5033164;28;20124;-89
2022/01/04 03:58:57;;;;;;;5.05;1.10;;;8.50;85.90;;;;;;5033255;28;20132;-89
2022/01/04 04:01:24;;;;;;;2.33;0.93;;;8.50;85.90;;;;;;5033430;28;20037;-89
2022/01/04 04:03:51;;;;;;;3.63;1.20;;;8.50;85.90;;;;;;5033465;28;20134;-90
2022/01/04 04:06:18;;;;;;;2.70;1.10;;;8.50;85.90;;;;;;5032184;28;20049;-88
2022/01/04 04:08:46;;;;;;;2.90;1.17;;;8.50;85.90;;;;;;5033307;28;20052;-91
2022/01/04 04:11:13;;;;;;;2.88;1.10;;;8.50;85.90;;;;;;5032917;28;20048;-89
2022/01/04 04:13:40;;;;;;;3.67;1.20;;;8.50;85.90;;;;;;5033034;28;20041;-90
2022/01/04 04:16:07;;;;;;;3.50;1.30;;;8.50;85.90;;;;;;5033249;28;20383;-90
2022/01/04 04:18:34;;;;;;;4.72;1.20;;;8.50;85.90;;;;;;5032296;28;20058;-89
2022/01/04 04:21:01;;;;;;;2.47;1.15;;;8.50;85.90;;;;;;5032981;28;20049;-89
2022/01/04 04:23:28;;;;;;;2.78;1.02;;;8.60;85.90;;;;;;5032911;28;20465;-91
2022/01/04 04:25:55;;;;;;;3.97;1.08;;;8.50;85.90;;;;;;5034142;28;20050;-90
2022/01/04 04:28:22;;;;;;;3.20;1.30;;;8.50;85.90;;;;;;5032061;28;20422;-90
2022/01/04 04:30:49;;;;;;;2.83;1.20;;;8.50;85.90;;;;;;5033191;28;20534;-90
2022/01/04 04:33:16;;;;;;;3.53;1.30;;;8.50;85.90;;;;;;5032193;28;20049;-90
2022/01/04 04:35:43;;;;;;;2.63;1.20;;;8.50;85.90;;;;;;5032907;28;20045;-90
2022/01/04 04:38:10;;;;;;;2.70;1.10;;;8.50;85.90;;;;;;5032888;28;20046;-90
2022/01/04 04:40:37;;;;;;;2.28;1.05;;;8.50;85.90;;;;;;5032795;28;20045;-89
2022/01/04 04:43:05;;;;;;;3.22;1.30;;;8.50;85.90;;;;;;5036965;28;20064;-90
2022/01/04 04:45:32;;;;;;;3.85;1.10;;;8.50;85.90;;;;;;5036051;28;20050;-89
2022/01/04 04:47:59;;;;;;;3.10;1.08;;;8.50;85.90;;;;;;5037087;28;20053;-90
2022/01/04 04:50:26;;;;;;;2.63;1.00;;;8.50;85.80;;;;;;5036733;28;20049;-89
2022/01/04 04:52:53;;;;;;;3.00;1.17;;;8.50;85.90;;;;;;5036692;28;20050;-90
2022/01/04 04:55:20;;;;;;;3.25;1.20;;;8.50;85.90;;;;;;5036328;28;20049;-89
2022/01/04 04:57:47;;;;;;;2.17;0.90;;;8.50;85.90;;;;;;5036750;28;20048;-89
2022/01/04 05:00:15;;;;;;;3.22;1.10;;;8.50;85.90;;;;;;5035813;28;20436;-90
2022/01/04 05:02:42;;;;;;;3.22;1.05;;;8.50;85.90;;;;;;5036547;28;20525;-89
2022/01/04 05:05:10;;;;;;;3.58;1.10;;;8.50;85.90;;;;;;5036348;28;20045;-90
2022/01/04 05:07:37;;;;;;;2.45;1.10;;;8.50;85.90;;;;;;5036389;28;20524;-89
2022/01/04 05:10:07;;;;;;;2.95;1.10;;;8.50;85.90;;;;;;5036259;28;20460;-88
2022/01/04 05:12:34;;;;;;;1.98;0.93;;;8.50;85.90;;;;;;5035410;28;20056;-90
2022/01/04 05:15:03;;;;;;;3.05;1.02;;;8.50;85.90;;;;;;5036241;28;20487;-89
2022/01/04 05:17:31;;;;;;;1.83;0.80;;;8.50;85.90;;;;;;5036266;28;20037;-90
2022/01/04 05:19:59;;;;;;;2.25;0.90;;;8.50;85.80;;;;;;5036331;28;20051;-89
2022/01/04 05:22:26;;;;;;;2.78;0.90;;;8.50;85.90;;;;;;5035844;28;20421;-89
2022/01/04 05:24:53;;;;;;;2.05;0.95;;;8.50;85.80;;;;;;5036070;28;20047;-90
2022/01/04 05:27:20;;;;;;;2.90;0.80;;;8.50;85.80;;;;;;5035397;28;20512;-89
2022/01/04 05:29:48;;;;;;;2.72;0.90;;;8.50;85.80;;;;;;5036002;28;20509;-89
2022/01/04 05:32:15;;;;;;;2.92;1.17;;;8.50;85.80;;;;;;5036005;28;20050;-90
2022/01/04 05:34:42;;;;;;;3.00;0.85;;;8.50;85.80;;;;;;5035857;28;20042;-90
2022/01/04 05:37:09;;;;;;;1.95;0.88;;;8.50;85.80;;;;;;5035693;28;20049;-89
2022/01/04 05:39:36;;;;;;;2.58;0.82;;;8.50;85.80;;;;;;5035406;28;20426;-89
2022/01/04 05:42:04;;;;;;;2.80;1.27;;;8.50;85.80;;;;;;5035371;28;20108;-89
2022/01/04 05:44:31;;;;;;;2.45;0.98;;;8.40;85.80;;;;;;5035781;28;20512;-90
2022/01/04 05:46:58;;;;;;;2.67;0.90;;;8.40;85.80;;;;;;5035717;28;20042;-89
2022/01/04 05:49:25;;;;;;;3.00;1.20;;;8.40;85.80;;;;;;5035817;28;20045;-89
2022/01/04 05:51:52;;;;;;;3.28;1.10;;;8.40;85.80;;;;;;5035447;28;20498;-89
2022/01/04 05:54:19;;;;;;;3.67;1.17;;;8.40;85.80;;;;;;5034040;28;20052;-88
2022/01/04 05:56:46;;;;;;;3.50;1.10;;;8.40;85.80;;;;;;5035670;28;20045;-89
2022/01/04 05:59:13;;;;;;;3.22;1.20;;;8.40;85.80;;;;;;5035483;28;20049;-89
2022/01/04 06:01:40;;;;;;;3.85;1.40;;;8.40;85.80;;;;;;5035300;28;20041;-90
2022/01/04 06:04:09;;;;;;;3.28;1.25;;;8.50;85.80;;;;;;5035601;28;20045;-90
2022/01/04 06:06:39;;;;;;;3.72;1.50;;;8.40;85.80;;;;;;5034382;28;20064;-90
2022/01/04 06:09:08;;;;;;;4.78;1.50;;;8.40;85.80;;;;;;5034597;28;20056;-88
2022/01/04 06:16:54;;;;;;;3.67;1.45;;;8.40;85.80;;;;;;5035158;28;20502;-89
2022/01/04 06:19:21;;;;;;;5.00;1.73;;;8.40;85.80;;;;;;5035207;28;20045;-88
2022/01/04 06:21:48;;;;;;;4.55;1.63;;;8.40;85.80;;;;;;5034800;28;20061;-89
2022/01/04 06:24:15;;;;;;;4.90;1.85;;;8.40;85.80;;;;;;5034408;28;20052;-89
2022/01/04 06:26:42;;;;;;;4.53;1.83;;;8.40;85.80;;;;;;5034863;28;20053;-89
2022/01/04 06:29:11;;;;;;;5.28;1.77;;;8.40;85.80;;;;;;5034931;28;20061;-89
2022/01/04 06:31:40;;;;;;;5.50;2.40;;;8.40;85.80;;;;;;5034877;28;20045;-87
2022/01/04 06:34:07;;;;;;;4.70;2.10;;;8.40;85.90;;;;;;5035007;28;20080;-88
2022/01/04 06:36:34;;;;;;;4.30;1.75;;;8.40;85.80;;;;;;5033564;28;20513;-89
2022/01/04 06:39:03;;;;;;;5.45;2.20;;;8.40;85.80;;;;;;5034625;28;20045;-89
2022/01/04 06:41:30;;;;;;;7.13;2.20;;;8.40;85.90;;;;;;5034694;28;20049;-89
2022/01/04 06:43:58;;;;;;;6.22;2.30;;;8.40;85.90;;;;;;5034668;28;20042;-89
2022/01/04 06:46:25;;;;;;;5.65;2.28;;;8.40;85.90;;;;;;5034645;28;20045;-89
2022/01/04 06:48:52;;;;;;;4.10;1.90;;;8.40;85.90;;;;;;5034752;28;20528;-89
2022/01/04 06:51:19;;;;;;;5.72;1.90;;;8.40;85.90;;;;;;5033359;28;20053;-89
2022/01/04 06:53:46;;;;;;;4.40;1.95;;;8.40;85.90;;;;;;5034405;28;20046;-89
2022/01/04 06:56:13;;;;;;;5.13;2.00;;;8.40;85.90;;;;;;5034396;28;20045;-89
2022/01/04 06:58:40;;;;;;;4.53;1.65;;;8.40;85.90;;;;;;5034494;28;20049;-89
2022/01/04 07:01:08;;;;;;;4.20;1.98;;;8.40;85.90;;;;;;5034443;28;20045;-89
2022/01/04 07:03:35;;;;;;;4.72;1.65;;;8.40;85.90;;;;;;5033511;28;20095;-89
2022/01/04 07:06:02;;;;;;;4.15;1.67;;;8.40;85.90;;;;;;5033313;28;20057;-89
2022/01/04 07:08:29;;;;;;;3.63;1.52;;;8.30;85.90;;;;;;5034279;28;20042;-89
2022/01/04 07:10:56;;;;;;;4.13;1.77;;;8.30;85.90;;;;;;5034166;28;20053;-89
2022/01/04 07:13:23;;;;;;;3.63;1.50;;;8.30;85.90;;;;;;5034255;28;20049;-90
2022/01/04 07:15:50;;;;;;;4.28;1.83;;;8.30;85.90;;;;;;5034187;28;20055;-90
2022/01/04 07:18:17;;;;;;;5.78;1.98;;;8.30;85.90;;;;;;5033319;28;20083;-90
2022/01/04 07:20:44;;;;;;;7.18;2.10;;;8.30;85.90;;;;;;5034009;28;20446;-90
2022/01/04 07:23:11;;;;;;;7.53;2.35;;;8.30;85.90;;;;;;5033899;28;20051;-89
2022/01/04 07:25:38;;;;;;;4.38;1.70;;;8.30;85.90;;;;;;5032707;28;20140;-90
2022/01/04 07:28:05;;;;;;;6.47;2.60;;;8.30;85.90;;;;;;5034099;28;20087;-89
2022/01/04 07:30:32;;;;;;;4.75;1.95;;;8.30;85.90;;;;;;5032963;28;20049;-90
2022/01/04 07:33:00;;;;;;;4.35;2.30;;;8.30;85.90;;;;;;5033787;28;20501;-90
2022/01/04 07:35:27;;;;;;;5.20;2.70;;;8.30;85.90;;;;;;5033694;28;20055;-90
2022/01/04 07:37:54;;;;;;;6.45;2.80;;;8.30;85.90;;;;;;5033655;28;20528;-90
2022/01/04 07:40:21;;;;;;;6.13;3.00;;;8.30;85.90;;;;;;5033743;28;20046;-90
2022/01/04 07:42:48;;;;;;;4.63;2.63;;;8.30;85.90;;;;;;5033647;28;20055;-90
2022/01/04 07:45:15;;;;;;;7.40;3.45;;;8.30;85.90;;;;;;5032715;28;20049;-89
2022/01/04 07:47:42;;;;;;;7.50;3.28;;;8.30;85.90;;;;;;5033168;28;20046;-89
2022/01/04 07:50:11;;;;;;;6.43;3.20;;;8.30;85.90;;;;;;5033504;28;20041;-90
2022/01/04 07:52:39;;;;;;;6.18;2.88;;;8.20;85.90;;;;;;5033430;28;20053;-90
2022/01/04 07:55:06;;;;;;;5.38;2.90;;;8.20;85.90;;;;;;5033462;28;20518;-89
2022/01/04 07:57:33;;;;;;;6.80;3.00;;;8.20;85.90;;;;;;5032655;28;20050;-89
2022/01/04 08:00:01;;;;;;;9.35;3.45;;;8.20;85.90;;;;;;5033723;28;20045;-90
2022/01/04 08:02:28;;;;;;;6.38;3.03;;;8.20;85.90;;;;;;5032888;28;20056;-89
2022/01/04 08:04:55;;;;;;;7.72;2.88;;;8.20;85.90;;;;;;5033324;28;20053;-89
2022/01/04 08:07:22;;;;;;;5.90;2.53;;;8.20;85.90;;;;;;5033097;28;20055;-89
2022/01/04 08:09:49;;;;;;;5.88;3.03;;;8.20;86.00;;;;;;5031169;28;20048;-90
2022/01/04 08:12:17;;;;;;;7.05;3.10;;;8.20;85.90;;;;;;5031538;28;20510;-90
2022/01/04 08:14:45;;;;;;;5.95;2.90;;;8.20;85.90;;;;;;5034548;28;20052;-89
2022/01/04 08:17:12;;;;;;;6.60;2.70;;;8.20;86.00;;;;;;5034144;28;20045;-89
2022/01/04 08:19:39;;;;;;;6.97;2.80;;;8.20;86.00;;;;;;5033012;28;20042;-87
2022/01/04 08:22:06;;;;;;;6.53;2.60;;;8.20;86.00;;;;;;5032384;28;20045;-89
2022/01/04 08:24:33;;;;;;;7.18;2.60;;;8.20;85.90;;;;;;5031958;28;20456;-88
2022/01/04 08:27:00;;;;;;;7.15;2.72;;;8.20;86.00;;;;;;5032974;28;20059;-88
2022/01/04 08:29:29;;;;;;;7.63;2.45;;;8.20;86.00;;;;;;5032620;28;20056;-90
2022/01/04 08:31:58;;;;;;;6.88;2.30;;;8.20;86.00;;;;;;5032286;28;20369;-89
2022/01/04 08:34:26;;;;;;;5.32;2.53;;;8.20;86.00;;;;;;5032544;28;20055;-89
2022/01/04 08:36:53;;;;;;;6.10;2.40;;;8.20;86.00;;;;;;5032473;28;20041;-90
2022/01/04 08:39:21;;;;;;;6.30;2.25;;;8.20;86.00;;;;;;5031722;28;20493;-89
2022/01/04 08:41:50;;;;;;;9.10;2.60;;;8.20;86.00;;;;;;5032466;28;20049;-89
2022/01/04 08:44:17;;;;;;;5.35;2.15;;;8.20;86.00;;;;;;5032210;28;20045;-89
2022/01/04 08:46:44;;;;;;;6.65;2.33;;;8.20;86.00;;;;;;5032163;28;20050;-89
2022/01/04 08:49:11;;;;;;;6.50;2.55;;;8.20;86.00;;;;;;5032371;28;20072;-89
2022/01/04 08:51:38;;;;;;;5.85;2.10;;;8.20;86.00;;;;;;5031870;28;20049;-90
2022/01/04 08:54:06;;;;;;;5.07;2.15;;;8.20;86.00;;;;;;5031781;28;20045;-89
2022/01/04 08:56:34;;;;;;;5.60;2.10;;;8.20;86.00;;;;;;5032275;28;20098;-89
2022/01/04 08:59:03;;;;;;;6.28;2.20;;;8.20;86.00;;;;;;5032051;28;20052;-90
2022/01/04 09:01:31;;;;;;;4.90;1.92;;;8.20;86.10;;;;;;5031876;28;20049;-89
2022/01/04 09:03:59;;;;;;;4.22;1.83;;;8.20;86.00;;;;;;5032437;28;20049;-89
2022/01/04 09:06:28;;;;;;;5.10;2.13;;;8.20;86.00;;;;;;5031008;28;20510;-90
2022/01/04 09:08:56;;;;;;;5.13;1.90;;;8.20;86.00;;;;;;5033936;28;20083;-89
2022/01/04 09:11:24;;;;;;;5.43;1.95;;;8.20;86.00;;;;;;5032194;28;20203;-89
2022/01/04 09:14:00;;;;;;;5.10;1.98;;;8.20;86.00;;;;;;5031843;28;20049;-89
2022/01/04 09:19:12;;;;;;;5.90;2.28;;;8.20;86.10;;;;;;5019016;28;20041;-89
2022/01/04 09:21:39;;;;;;;6.68;2.05;;;8.20;86.10;;;;;;5031650;28;20053;-88
2022/01/04 09:24:06;;;;;;;4.30;2.10;;;8.20;86.10;;;;;;5031394;28;20055;-90
2022/01/04 09:26:33;;;;;;;5.43;2.63;;;8.20;86.10;;;;;;5031888;28;20216;-90
2022/01/04 09:29:00;;;;;;;5.22;2.20;;;8.20;86.10;;;;;;5033490;28;20041;-88
2022/01/04 09:31:28;;;;;;;5.70;2.53;;;8.20;86.10;;;;;;5035913;28;20064;-89
2022/01/04 09:33:58;;;;;;;5.72;2.50;;;8.20;86.10;;;;;;5020018;28;20041;-90
2022/01/04 09:36:33;;;;;;;5.30;2.08;;;8.20;86.10;;;;;;5030685;28;20056;-89
2022/01/04 09:39:02;;;;;;;5.28;2.45;;;8.20;86.10;;;;;;5036053;28;20067;-89
2022/01/04 09:41:29;;;;;;;7.53;2.90;;;8.20;86.10;;;;;;5035606;28;20056;-89
2022/01/04 09:43:57;;;;;;;5.25;2.60;;;8.20;86.10;;;;;;5034842;28;20052;-90
2022/01/04 09:46:26;;;;;;;5.32;2.65;;;8.20;86.10;;;;;;5035605;28;20421;-89
2022/01/04 09:48:53;;;;;;;5.75;3.17;;;8.20;86.10;;;;;;5035682;28;20407;-89
2022/01/04 09:51:21;;;;;;;5.70;3.40;;;8.20;86.10;;;;;;5034220;28;20057;-89
2022/01/04 09:53:50;;;;;;;7.60;3.92;;;8.20;86.10;;;;;;5035416;28;20043;-90
2022/01/04 09:56:17;;;;;;;8.05;4.15;;;8.20;86.10;;;;;;5037004;28;20061;-89
2022/01/04 09:58:46;;;;;;;8.20;4.10;;;8.20;86.10;;;;;;5034625;28;20072;-90
2022/01/04 10:01:27;;;;;;;9.80;4.45;;;8.30;86.20;;;;;;5035272;28;20071;-89
2022/01/04 10:04:15;;;;;;;9.27;5.13;;;8.30;86.20;;;;;;5021656;28;20053;-90
2022/01/04 10:07:04;;;;;;;8.18;4.90;;;8.30;86.20;;;;;;5034898;28;20064;-89
2022/01/04 10:09:52;;;;;;;10.05;5.35;;;8.30;86.20;;;;;;5031334;28;20128;-89
2022/01/04 10:12:23;;;;;;;8.88;5.35;;;8.30;86.20;;;;;;5033517;28;20140;-85
2022/01/04 10:14:52;;;;;;;10.57;6.05;;;8.30;86.20;;;;;;5035085;28;20059;-91
2022/01/04 10:17:28;;;;;;;8.63;5.82;;;8.30;86.30;;;;;;5034803;28;20403;-89
2022/01/04 10:19:58;;;;;;;9.20;6.15;;;8.30;86.30;;;;;;5035129;28;20395;-89
2022/01/04 10:22:29;;;;;;;9.32;6.35;;;8.30;86.30;;;;;;5035099;28;20052;-90
2022/01/04 10:25:03;;;;;;;12.65;6.97;;;8.40;86.30;;;;;;5019523;28;20045;-89
2022/01/04 10:27:43;;;;;;;10.77;6.85;;;8.40;86.30;;;;;;5030492;28;20050;-89
2022/01/04 10:30:14;;;;;;;10.80;6.90;;;8.40;86.30;;;;;;5034418;28;20045;-90
2022/01/04 10:33:01;;;;;;;11.27;7.68;;;8.40;86.30;;;;;;5036397;28;20045;-88
2022/01/04 10:35:30;;;;;;;10.50;7.43;;;8.40;86.30;;;;;;5035071;28;20045;-89
2022/01/04 10:38:07;;;;;;;13.13;7.85;;;8.40;86.30;;;;;;5034908;28;20049;-90
2022/01/04 10:40:34;;;;;;;17.73;8.05;;;8.40;86.30;;;;;;5034422;28;20509;-88
2022/01/04 10:43:17;;;;;;;10.27;7.90;;;8.40;86.40;;;;;;5034467;28;20041;-88
2022/01/04 10:45:47;;;;;;;10.93;8.57;;;8.40;86.40;;;;;;5034594;28;20050;-88
2022/01/04 10:48:18;;;;;;;11.10;8.43;;;8.40;86.40;;;;;;5033817;28;20085;-88
2022/01/04 10:50:52;;;;;;;14.73;9.38;;;8.50;86.40;;;;;;5034668;28;20037;-89
2022/01/04 10:53:21;;;;;;;12.18;9.73;;;8.50;86.40;;;;;;5034564;28;20038;-89
2022/01/04 10:55:50;;;;;;;14.30;10.50;;;8.40;86.40;;;;;;5034666;28;20048;-88
2022/01/04 10:58:27;;;;;;;17.25;10.48;;;8.50;86.40;;;;;;5034710;28;20041;-88
2022/01/04 11:01:01;;;;;;;15.77;10.38;;;8.50;86.40;;;;;;5034378;28;20049;-88
2022/01/04 11:03:31;;;;;;;14.20;11.15;;;8.50;86.40;;;;;;5028543;28;20490;-88
2022/01/04 11:06:03;;;;;;;14.30;11.38;;;8.50;86.40;;;;;;5034561;28;20581;-88
2022/01/04 11:08:30;;;;;;;13.77;10.93;;;8.50;86.40;;;;;;5032749;28;20049;-87
2022/01/04 11:10:58;;;;;;;16.63;11.70;;;8.50;86.40;;;;;;5035076;28;20047;-87
2022/01/04 11:13:26;;;;;;;17.45;11.60;;;8.50;86.40;;;;;;5033834;28;20434;-87
2022/01/04 11:15:53;;;;;;;16.23;11.52;;;8.50;86.40;;;;;;5033556;28;20045;-88
2022/01/04 11:18:21;;;;;;;16.23;12.50;;;8.60;86.40;;;;;;5032942;28;20049;-88
2022/01/04 11:20:50;;;;;;;19.70;12.63;;;8.60;86.40;;;;;;5033668;28;20045;-88
2022/01/04 11:23:23;;;;;;;18.15;12.15;;;8.50;86.30;;;;;;5035301;28;20045;-88
2022/01/04 11:25:51;;;;;;;17.92;12.77;;;8.60;86.40;;;;;;5033175;28;20834;-88
2022/01/04 11:28:18;;;;;;;16.95;12.45;;;8.60;86.30;;;;;;5033714;28;20128;-87
2022/01/04 11:30:45;;;;;;;21.58;12.30;;;8.60;86.40;;;;;;5033417;28;20421;-88
2022/01/04 11:33:38;;;;;;;18.02;13.18;;;8.60;86.40;;;;;;5032728;28;20129;-87
2022/01/04 11:36:07;;;;;;;16.55;12.65;;;8.60;86.40;;;;;;5034474;28;20433;-87
2022/01/04 11:38:37;;;;;;;19.58;13.15;;;8.60;86.40;;;;;;5033035;28;20045;-87
2022/01/04 11:41:05;;;;;;;18.45;13.18;;;8.60;86.40;;;;;;5032962;28;20513;-88
2022/01/04 11:43:35;;;;;;;20.05;13.45;;;8.60;86.40;;;;;;5033465;28;20048;-87
2022/01/04 11:46:03;;;;;;;17.50;12.40;;;8.60;86.30;;;;;;5033127;28;20049;-87
2022/01/04 11:48:36;;;;;;;18.58;12.90;;;8.60;86.30;;;;;;5032312;28;20054;-88
2022/01/04 11:51:06;;;;;;;21.70;12.20;;;8.60;86.30;;;;;;5033261;28;20050;-87
2022/01/04 11:53:35;;;;;;;20.45;11.77;;;8.60;86.30;;;;;;5032760;28;20052;-87
2022/01/04 11:56:05;;;;;;;20.50;11.40;;;8.60;86.30;;;;;;5033674;28;20041;-87
2022/01/04 11:58:51;;;;;;;17.80;11.18;;;8.70;86.30;;;;;;5032873;28;20053;-87
2022/01/04 12:01:27;;;;;;;14.95;10.35;;;8.60;86.30;;;;;;5032715;28;20064;-88
2022/01/04 12:03:55;;;;;;;17.90;9.13;;;8.70;86.30;;;;;;5032946;28;20051;-87
2022/01/04 12:06:37;;;;;;;16.45;9.60;;;8.70;86.30;;;;;;5031783;28;20418;-87
2022/01/04 12:09:25;;;;;;;12.85;8.05;;;8.70;86.30;;;;;;5033352;28;20042;-88
2022/01/04 12:11:52;;;;;;;12.57;7.53;;;8.60;86.20;;;;;;5032779;28;20157;-87
2022/01/04 12:14:24;;;;;;;12.38;7.55;;;8.60;86.20;;;;;;5032554;28;20053;-88
2022/01/04 12:17:07;;;;;;;12.40;6.55;;;8.60;86.20;;;;;;5032672;28;20053;-88
2022/01/04 12:19:51;;;;;;;10.85;7.03;;;8.60;86.20;;;;;;5032785;28;20525;-89
2022/01/04 12:22:32;;;;;;;13.65;5.95;;;8.60;86.20;;;;;;5032558;28;20052;-88
2022/01/04 12:25:05;;;;;;;12.90;6.35;;;8.60;86.20;;;;;;5017219;28;20045;-88
2022/01/04 12:27:32;;;;;;;11.45;5.53;;;8.60;86.20;;;;;;5031936;28;20053;-89
2022/01/04 12:30:22;;;;;;;10.00;5.20;;;8.60;86.10;;;;;;5032495;28;20144;-89
2022/01/04 12:32:50;;;;;;;11.48;5.78;;;8.50;86.10;;;;;;5032722;28;20046;-89
2022/01/04 12:35:17;;;;;;;8.80;5.03;;;8.60;86.10;;;;;;5032748;28;20041;-90
2022/01/04 12:37:44;;;;;;;10.55;5.70;;;8.50;86.10;;;;;;5031906;28;20508;-90
2022/01/04 12:40:11;;;;;;;12.60;5.65;;;8.50;86.20;;;;;;5033283;28;20047;-90
2022/01/04 12:42:42;;;;;;;8.05;5.00;;;8.60;86.10;;;;;;5032218;28;20052;-89
2022/01/04 12:45:12;;;;;;;9.68;5.05;;;8.50;86.20;;;;;;5029643;28;20053;-90
2022/01/04 12:47:47;;;;;;;7.70;4.45;;;8.60;86.20;;;;;;5032498;28;20053;-86
2022/01/04 12:50:14;;;;;;;10.05;5.38;;;8.60;86.20;;;;;;5032614;28;20520;-89
2022/01/04 12:52:47;;;;;;;8.40;5.07;;;8.50;86.20;;;;;;5031913;28;20056;-89
2022/01/04 12:55:14;;;;;;;11.70;5.45;;;8.50;86.20;;;;;;5032578;28;20042;-89
2022/01/04 12:57:42;;;;;;;8.98;4.97;;;8.50;86.20;;;;;;5032264;28;20053;-88
2022/01/04 13:00:14;;;;;;;9.80;4.32;;;8.60;86.20;;;;;;5029281;28;20046;-87
2022/01/04 13:02:42;;;;;;;10.25;5.07;;;8.60;86.30;;;;;;5034464;28;20080;-87
2022/01/04 13:05:11;;;;;;;10.07;4.43;;;8.60;86.20;;;;;;5036145;28;20124;-88
2022/01/04 13:07:39;;;;;;;8.55;4.38;;;8.60;86.20;;;;;;5034362;28;20053;-89
2022/01/04 13:10:12;;;;;;;7.10;4.28;;;8.60;86.30;;;;;;5035999;28;20048;-86
2022/01/04 13:12:48;;;;;;;8.40;4.10;;;8.60;86.30;;;;;;5035292;28;20449;-89
2022/01/04 13:15:17;;;;;;;7.10;3.85;;;8.60;86.20;;;;;;5034245;28;20142;-88
2022/01/04 13:17:47;;;;;;;7.13;3.33;;;8.60;86.20;;;;;;5036141;28;20045;-87